Have a Safe July 4th! 

Flight Track Log - Related Links

Times and Time Zones

All times are in EDT time to prevent confusion due to time zone crossing. See the DAL1092 flight status page for this flight to view local times or setup timezone preferences in your user account.

Time Position Orientation Groundspeed Altitude Reporting Facility
EDT Latitude Longitude Course Direction KTS MPH feet Rate Location/Type
Sun 09:54:33 AM 33.6667 -84.3333 259° West 239 275 3,000  Level Atlanta TRACON
Sun 09:55:27 AM 33.7167 -84.2833 40° Northeast 279 321 5,500 2,750 Climbing Atlanta TRACON
Sun 09:56:00 AM 33.5187 -84.8471 251° West  Level Estimated
Sun 09:56:33 AM 33.8000 -84.2833 360° North 294 338 8,500  Level Atlanta TRACON
Sun 09:57:00 AM 33.5114 -84.9942 267° West  Level FlightAware Approximate
Sun 09:58:00 AM 33.5039 -85.1413 267° West  Level FlightAware Approximate
Sun 09:59:00 AM 33.4631 -85.2803 259° West  Level Estimated
Sun 09:59:03 AM 33.8100 -84.5339 273° West 291 335 13,500  Level Atlanta Center
Sun 10:00:03 AM 33.7739 -84.6436 248° West 336 387 14,700 1,400 Climbing Atlanta Center
Sun 10:01:03 AM 33.7025 -84.7506 231° Southwest 367 422 16,300 1,750 Climbing Atlanta Center
Sun 10:02:03 AM 33.6350 -84.8722 236° Southwest 399 459 18,200 1,850 Climbing Atlanta Center
Sun 10:03:03 AM 33.5900 -85.0064 248° West 426 490 20,000 1,850 Climbing Atlanta Center
Sun 10:04:03 AM 33.5408 -85.1453 247° West 447 514 21,900 1,700 Climbing Atlanta Center
Sun 10:05:03 AM 33.5000 -85.2869 251° West 452 520 23,400 1,400 Climbing Atlanta Center
Sun 10:06:03 AM 33.4772 -85.4458 260° West 464 534 24,700 1,450 Climbing Atlanta Center
Sun 10:07:03 AM 33.4525 -85.6000 259° West 476 548 26,300 1,600 Climbing Atlanta Center
Sun 10:08:03 AM 33.4297 -85.7514 260° West 476 548 27,900 1,400 Climbing Atlanta Center
Sun 10:09:03 AM 33.4067 -85.8878 259° West 470 541 29,100 1,250 Climbing Atlanta Center
Sun 10:10:03 AM 33.3836 -86.0364 260° West 470 541 30,400 1,400 Climbing Atlanta Center
Sun 10:11:03 AM 33.3578 -86.2050 260° West 475 547 31,900 1,100 Climbing Atlanta Center
Sun 10:12:03 AM 33.3322 -86.3511 258° West 469 540 32,600 1,050 Climbing Atlanta Center
Sun 10:13:03 AM 33.3086 -86.4847 258° West 469 540 34,000 700 Climbing Atlanta Center
Sun 10:14:03 AM 33.2844 -86.6431 260° West 455 524 34,000  Level Atlanta Center
Sun 10:15:03 AM 33.2606 -86.7914 259° West 461 531 34,000  Level Atlanta Center
Sun 10:16:03 AM 33.2322 -86.9369 257° West 456 525 34,000  Level Atlanta Center
Sun 10:17:03 AM 33.1856 -87.0472 243° Southwest 451 519 34,000  Level Atlanta Center
Sun 10:18:03 AM 33.1172 -87.1911 240° Southwest 455 524 34,000  Level Atlanta Center
Sun 10:19:23 AM 33.0356 -87.3775 242° Southwest 453 521 34,000  Level Memphis Center
Sun 10:20:25 AM 32.9761 -87.5111 242° Southwest 453 521 34,000  Level Memphis Center
Sun 10:21:27 AM 32.9158 -87.6439 242° Southwest 454 522 34,000  Level Memphis Center
Sun 10:22:29 AM 32.8550 -87.7744 241° Southwest 453 521 34,000  Level Memphis Center
Sun 10:23:31 AM 32.7964 -87.9044 242° Southwest 450 518 34,000  Level Memphis Center
Sun 10:24:33 AM 32.7272 -88.0556 241° Southwest 450 518 34,000  Level Memphis Center
Sun 10:25:35 AM 32.6675 -88.1850 241° Southwest 450 518 34,000  Level Memphis Center
Sun 10:26:37 AM 32.6150 -88.3175 245° Southwest 447 514 34,000  Level Memphis Center
Sun 10:27:39 AM 32.5739 -88.4556 251° West 445 512 34,000  Level Memphis Center
Sun 10:28:41 AM 32.5297 -88.5922 249° West 445 512 34,000  Level Memphis Center
Sun 10:29:43 AM 32.4775 -88.7564 249° West 445 512 34,000  Level Memphis Center
Sun 10:30:45 AM 32.4328 -88.8911 249° West 445 512 34,000  Level Memphis Center
Sun 10:31:47 AM 32.3906 -89.0264 250° West 445 512 34,000  Level Memphis Center
Sun 10:32:49 AM 32.3483 -89.1622 250° West 444 511 34,000  Level Memphis Center
Sun 10:33:51 AM 32.3064 -89.2992 250° West 444 511 34,000  Level Memphis Center
Sun 10:34:53 AM 32.2633 -89.4342 249° West 444 511 34,000  Level Memphis Center
Sun 10:35:54 AM 32.2136 -89.5972 250° West 444 511 34,000  Level Memphis Center
Sun 10:36:56 AM 32.1700 -89.7353 250° West 444 511 34,000  Level Memphis Center
Sun 10:37:58 AM 32.1272 -89.8731 250° West 445 512 34,000  Level Memphis Center
Sun 10:39:00 AM 32.0833 -90.0114 250° West 446 513 34,000  Level Memphis Center
Sun 10:40:02 AM 32.0400 -90.1489 250° West 449 517 34,000  Level Memphis Center
Sun 10:41:04 AM 31.9942 -90.2883 249° West 451 519 34,000  Level Memphis Center
Sun 10:42:06 AM 31.9425 -90.4525 250° West 451 519 34,000  Level Memphis Center
Sun 10:43:08 AM 31.8975 -90.5906 249° West 451 519 34,000  Level Memphis Center
Sun 10:44:10 AM 31.8528 -90.7272 249° West 451 519 34,000  Level Memphis Center
Sun 10:45:12 AM 31.8083 -90.8647 249° West 451 519 34,000  Level Memphis Center
Sun 10:46:14 AM 31.7642 -90.9997 249° West 450 518 34,000  Level Memphis Center
Sun 10:47:16 AM 31.7200 -91.1358 249° West 449 517 34,000  Level Memphis Center
Sun 10:48:18 AM 31.6658 -91.2986 249° West 449 517 34,000  Level Memphis Center
Sun 10:49:20 AM 31.6208 -91.4350 249° West 450 518 34,000  Level Memphis Center
Sun 10:50:22 AM 31.5764 -91.5700 249° West 449 517 34,000  Level Memphis Center
Sun 10:51:38 AM 31.5194 -91.7358 248° West 447 514 34,000  Level Houston Center
Sun 10:52:40 AM 31.4742 -91.8689 248° West 444 511 34,000  Level Houston Center
Sun 10:53:42 AM 31.4206 -92.0289 249° West 443 510 34,000  Level Houston Center
Sun 10:54:44 AM 31.3789 -92.1519 248° West 446 513 34,000  Level Houston Center
Sun 10:55:46 AM 31.3322 -92.2856 248° West 447 514 34,000  Level Houston Center
Sun 10:56:48 AM 31.2756 -92.4492 248° West 453 521 34,000  Level Houston Center
Sun 10:57:50 AM 31.2250 -92.5825 246° West 452 520 34,000  Level Houston Center
Sun 10:58:52 AM 31.1661 -92.7111 242° Southwest 452 520 34,000  Level Houston Center
Sun 10:59:54 AM 31.1097 -92.8411 243° Southwest 452 520 34,000  Level Houston Center
Sun 11:00:56 AM 31.0517 -92.9694 242° Southwest 451 519 34,000  Level Houston Center
Sun 11:01:58 AM 30.9947 -93.0994 243° Southwest 451 519 34,000 -48 Level Houston Center
Sun 11:03:00 AM 30.9269 -93.2511 243° Southwest 447 514 33,900 -871 Descending Houston Center
Sun 11:04:02 AM 30.8714 -93.3747 242° Southwest 439 505 32,200 -1,500 Descending Houston Center
Sun 11:05:04 AM 30.8156 -93.4994 242° Southwest 438 504 30,800 -1,452 Descending Houston Center
Sun 11:06:06 AM 30.7611 -93.6197 242° Southwest 429 494 29,200 -1,742 Descending Houston Center
Sun 11:07:08 AM 30.7108 -93.7328 243° Southwest 403 464 27,200 -2,177 Descending Houston Center
Sun 11:08:10 AM 30.6492 -93.8675 242° Southwest 397 457 24,700 -2,226 Descending Houston Center
Sun 11:09:12 AM 30.5994 -93.9786 243° Southwest 396 456 22,600 -2,081 Descending Houston Center
Sun 11:10:14 AM 30.5481 -94.0900 242° Southwest 396 456 20,400 -2,242 Descending Houston Center
Sun 11:10:51 AM 30.5111 -94.1706 242° Southwest 392 451 18,900 -2,032 Descending Houston Center
Sun 11:11:16 AM 30.4972 -94.1986 240° Southwest 387 445 18,300 -2,060 Descending Houston Center
Sun 11:11:58 AM 30.4556 -94.2894 242° Southwest 374 430 16,600 -2,032 Descending Houston Center
Sun 11:12:18 AM 30.4494 -94.3036 243° Southwest 378 435 16,200 -1,527 Descending Houston Center
Sun 11:12:53 AM 30.4122 -94.3825 241° Southwest 362 417 15,200 -1,258 Descending Houston Center
Sun 11:13:20 AM 30.3883 -94.4194 233° Southwest 357 411 14,900 -1,075 Descending Houston Center
Sun 11:14:00 AM 30.3406 -94.4644 219° Southwest 327 376 14,000 -1,355 Descending Houston Center
Sun 11:14:22 AM 30.3181 -94.4836 216° Southwest 328 377 13,500 -1,672 Descending Houston Center
Sun 11:15:01 AM 30.2714 -94.5317 222° Southwest 315 362 12,300 -1,452 Descending Houston Center
Sun 11:15:24 AM 30.2539 -94.5461 215° Southwest 319 367 12,000 -1,475 Descending Houston Center
Sun 11:16:02 AM 30.2042 -94.5958 221° Southwest 303 349 10,800 -1,452 Descending Houston Center
Sun 11:16:26 AM 30.1889 -94.6061 210° Southwest 304 350 10,500 -985 Descending Houston Center
Sun 11:17:09 AM 30.1364 -94.6556 219° Southwest 270 311 9,700 -871 Descending Houston Center
Sun 11:17:28 AM 30.1294 -94.6636 225° Southwest 283 326 9,600 -964 Descending Houston Center
Sun 11:18:05 AM 30.1003 -94.7181 238° Southwest 238 274 8,800 -1,161 Descending Houston Center
Sun 11:18:30 AM 30.0878 -94.7433 240° Southwest 249 287 8,400 -1,279 Descending Houston Center
Sun 11:19:06 AM 30.0667 -94.7828 238° Southwest 237 273 7,500 -1,161 Descending Houston Center
Sun 11:19:32 AM 30.0525 -94.8061 235° Southwest 237 273 7,200 -1,224 Descending Houston Center
Sun 11:19:55 AM 30.0381 -94.8347 240° Southwest 233 268 6,500 -1,258 Descending Houston Center
Sun 11:20:34 AM 30.0194 -94.8669 236° Southwest 228 262 5,900 -1,180 Descending Houston Center
Sun 11:20:56 AM 30.0039 -94.8944 237° Southwest 221 254 5,300 -871 Descending Houston Center
Sun 11:21:36 AM 29.9928 -94.9289 250° West 221 254 5,000 -269 Descending Houston Center
Sun 11:22:03 AM 29.9939 -94.9681 272° West 224 258 5,000 -387 Level Houston Center
Sun 11:22:38 AM 29.9925 -95.0006 267° West 224 258 4,600 -1,091 Descending Houston Center
Sun 11:22:58 AM 29.9919 -95.0358 269° West 228 262 4,000 -1,355 Descending Houston Center
Sun 11:23:40 AM 29.9936 -95.0872 272° West 225 259 3,200 -1,180 Descending Houston Center
Sun 11:23:59 AM 29.9925 -95.1083 267° West 225 259 2,800 -667 Descending Houston Center
Sun 11:24:43 AM 29.9933 -95.1575 271° West 225 259 2,500 -492 Descending Houston Center
Sun 11:25:00 AM 29.9928 -95.1781 268° West 184 212 2,300 -484 Descending Houston Center
Sun 11:25:45 AM 29.9931 -95.2192 270° West 212 244 2,000 -764 Descending Houston Center
Sun 11:25:55 AM 29.9939 -95.2358 273° West 192 221 1,600 -871 Descending Houston Center
Sun 11:26:47 AM 29.9936 -95.2728 270° West 191 220 1,100 -684 Descending Houston Center
Sun 11:27:49 AM 29.9942 -95.3172 271° West 164 189 300 -774 Descending Houston Center

Login

Don't have an account? Register now (free) for customized features, flight alerts, and more!